Time;durP1;ratioP1;P1;durP2;ratioP2;P2;SDS_P1;SDS_P2;PMS_P1;PMS_P2;Temp;Humidity;BMP_temperature;BMP_pressure;BME280_temperature;BME280_humidity;BME280_pressure;Samples;Min_cycle;Max_cycle;Signal;HPM_P1;HPM_P2
2024/01/14 00:01:56;;;;;;;8.80;7.95;;;17.40;50.40;;;;;;5079843;28;20184;-68
2024/01/14 00:04:23;;;;;;;8.90;8.00;;;17.40;50.50;;;;;;5091619;28;20247;-68
2024/01/14 00:06:51;;;;;;;8.57;7.68;;;17.40;50.50;;;;;;5075682;28;20166;-69
2024/01/14 00:09:18;;;;;;;8.85;7.95;;;17.40;50.50;;;;;;5081919;28;20193;-68
2024/01/14 00:11:43;;;;;;;9.10;8.10;;;17.40;50.50;;;;;;5092288;28;20223;-68
2024/01/14 00:14:09;;;;;;;8.32;7.47;;;17.40;50.40;;;;;;5091654;28;20243;-69
2024/01/14 00:16:35;;;;;;;8.63;7.72;;;17.40;50.50;;;;;;5089582;28;20214;-69
2024/01/14 00:19:03;;;;;;;8.45;7.65;;;17.40;50.60;;;;;;5111922;27;20201;-69
2024/01/14 00:21:29;;;;;;;8.45;7.65;;;17.40;50.40;;;;;;5088555;28;20265;-68
2024/01/14 00:23:55;;;;;;;8.07;7.25;;;17.40;50.40;;;;;;5096577;28;20201;-70
2024/01/14 00:26:24;;;;;;;7.75;7.03;;;17.40;50.40;;;;;;5094430;28;20185;-69
2024/01/14 00:28:52;;;;;;;9.13;8.23;;;17.40;50.40;;;;;;5081734;28;20184;-68
2024/01/14 00:31:18;;;;;;;8.20;7.40;;;17.40;50.40;;;;;;5091911;28;20286;-68
2024/01/14 00:33:44;;;;;;;8.52;7.53;;;17.40;50.50;;;;;;5092994;28;20205;-68
2024/01/14 00:36:10;;;;;;;8.35;7.38;;;17.40;50.40;;;;;;5091772;28;20189;-69
2024/01/14 00:38:36;;;;;;;8.95;8.05;;;17.40;50.40;;;;;;5075099;28;20177;-69
2024/01/14 00:41:02;;;;;;;8.23;7.43;;;17.30;50.30;;;;;;5092735;28;20173;-68
2024/01/14 00:43:28;;;;;;;8.00;7.20;;;17.40;50.40;;;;;;5093399;28;20185;-68
2024/01/14 00:45:54;;;;;;;9.60;8.60;;;17.40;50.30;;;;;;5098723;28;20208;-69
2024/01/14 00:48:20;;;;;;;8.50;7.70;;;17.40;50.40;;;;;;5091298;28;20667;-68
2024/01/14 00:50:45;;;;;;;8.88;7.97;;;17.40;50.30;;;;;;5097951;28;20226;-69
2024/01/14 00:53:11;;;;;;;8.05;7.25;;;17.30;50.30;;;;;;5074467;28;20193;-68
2024/01/14 00:55:37;;;;;;;9.25;8.35;;;17.40;50.40;;;;;;5091446;28;20710;-68
2024/01/14 00:58:03;;;;;;;8.20;7.40;;;17.40;50.30;;;;;;5098490;28;20226;-68
2024/01/14 01:00:29;;;;;;;8.50;7.70;;;17.30;50.30;;;;;;5079183;28;20204;-66
2024/01/14 01:02:55;;;;;;;7.72;7.03;;;17.40;50.30;;;;;;5101914;28;20187;-69
2024/01/14 01:05:21;;;;;;;9.75;8.75;;;17.30;50.20;;;;;;5105532;28;20216;-69
2024/01/14 01:07:46;;;;;;;9.68;8.57;;;17.30;50.80;;;;;;5092501;28;20178;-68
2024/01/14 01:10:13;;;;;;;9.23;7.82;;;17.40;50.30;;;;;;5090922;28;20192;-66
2024/01/14 01:12:39;;;;;;;9.23;8.15;;;17.40;50.30;;;;;;5079207;28;20178;-69
2024/01/14 01:15:06;;;;;;;8.48;7.68;;;17.30;50.20;;;;;;5088809;28;20283;-69
2024/01/14 01:17:32;;;;;;;8.38;7.57;;;17.40;50.20;;;;;;5085489;28;20215;-69
2024/01/14 01:20:02;;;;;;;8.80;7.90;;;17.30;50.20;;;;;;5082194;28;20288;-68
2024/01/14 01:22:28;;;;;;;8.70;7.80;;;17.30;50.20;;;;;;5111227;28;20191;-68
2024/01/14 01:24:54;;;;;;;8.30;7.50;;;17.30;50.20;;;;;;5094510;28;20192;-69
2024/01/14 01:27:20;;;;;;;8.32;7.53;;;17.30;50.10;;;;;;5089354;28;20184;-69
2024/01/14 01:29:46;;;;;;;8.07;7.28;;;17.40;50.20;;;;;;5097295;28;20266;-69
2024/01/14 01:32:12;;;;;;;8.63;7.70;;;17.30;50.10;;;;;;5074041;28;20279;-68
2024/01/14 01:34:38;;;;;;;8.85;7.72;;;17.40;50.10;;;;;;5090902;28;20239;-69
2024/01/14 01:37:04;;;;;;;8.25;7.45;;;17.40;50.20;;;;;;5087849;28;20215;-69
2024/01/14 01:39:31;;;;;;;9.63;8.30;;;17.40;50.20;;;;;;5072171;28;20213;-69
2024/01/14 01:41:57;;;;;;;8.80;7.80;;;17.30;50.10;;;;;;5087500;28;20177;-69
2024/01/14 01:44:24;;;;;;;7.63;6.93;;;17.30;50.00;;;;;;5072709;28;20209;-68
2024/01/14 01:46:51;;;;;;;9.02;8.13;;;17.30;50.00;;;;;;5097462;28;20197;-68
2024/01/14 01:49:17;;;;;;;9.48;8.50;;;17.30;50.00;;;;;;5097296;28;20306;-70
2024/01/14 01:51:49;;;;;;;9.52;8.27;;;17.30;50.00;;;;;;5097268;28;20181;-69
2024/01/14 01:54:28;;;;;;;9.52;8.20;;;17.30;50.00;;;;;;5090264;28;20712;-68
2024/01/14 01:56:55;;;;;;;8.48;7.63;;;17.30;50.00;;;;;;5091688;28;20184;-68
2024/01/14 01:59:22;;;;;;;8.70;7.57;;;17.30;50.00;;;;;;5105981;28;20213;-69
2024/01/14 02:01:54;;;;;;;8.82;7.93;;;17.30;50.00;;;;;;5074612;28;20169;-68
2024/01/14 02:04:21;;;;;;;8.88;8.00;;;17.30;49.90;;;;;;5080039;28;20272;-68
2024/01/14 02:06:47;;;;;;;8.90;8.00;;;17.30;49.90;;;;;;5090875;28;20181;-69
2024/01/14 02:09:13;;;;;;;8.82;7.97;;;17.30;50.00;;;;;;5090387;28;20188;-68
2024/01/14 02:11:39;;;;;;;8.77;7.95;;;17.30;50.00;;;;;;5078082;28;20653;-68
2024/01/14 02:14:06;;;;;;;8.30;7.50;;;17.30;49.90;;;;;;5089349;28;20216;-69
2024/01/14 02:16:31;;;;;;;8.05;7.25;;;17.30;49.90;;;;;;5091394;28;20180;-69
2024/01/14 02:18:57;;;;;;;8.50;7.65;;;17.30;50.60;;;;;;5090144;28;20209;-69
2024/01/14 02:21:31;;;;;;;9.27;7.97;;;17.30;50.00;;;;;;5098665;28;20189;-68
2024/01/14 02:24:30;;;;;;;8.90;8.00;;;17.30;49.90;;;;;;5090290;28;20201;-69
2024/01/14 02:26:56;;;;;;;9.60;8.35;;;17.30;49.90;;;;;;5080064;28;20181;-69
2024/01/14 02:29:23;;;;;;;9.23;8.32;;;17.30;50.00;;;;;;5090103;28;20196;-69
2024/01/14 02:31:50;;;;;;;9.23;8.25;;;17.30;49.90;;;;;;5091293;28;20181;-68
2024/01/14 02:34:15;;;;;;;9.18;8.13;;;17.30;50.00;;;;;;5106895;28;20223;-68
2024/01/14 02:36:41;;;;;;;8.52;7.63;;;17.30;49.90;;;;;;5091449;28;20181;-68
2024/01/14 02:39:07;;;;;;;8.93;8.02;;;17.30;49.90;;;;;;5088591;28;20687;-68
2024/01/14 02:41:34;;;;;;;8.27;7.47;;;17.30;49.80;;;;;;5096533;28;20192;-69
2024/01/14 02:44:00;;;;;;;9.13;8.23;;;17.30;49.90;;;;;;5096353;28;20211;-68
2024/01/14 02:46:30;;;;;;;9.05;8.02;;;17.30;49.80;;;;;;5076164;28;20185;-68
2024/01/14 02:48:57;;;;;;;9.00;8.10;;;17.30;49.90;;;;;;5090067;28;20181;-68
2024/01/14 02:51:23;;;;;;;8.85;7.95;;;17.30;49.80;;;;;;5079334;28;20226;-70
2024/01/14 02:53:49;;;;;;;8.93;8.02;;;17.30;49.90;;;;;;5084558;28;20229;-69
2024/01/14 02:56:15;;;;;;;8.77;7.88;;;17.30;49.90;;;;;;5108315;28;20189;-68
2024/01/14 02:58:41;;;;;;;9.43;8.50;;;17.30;49.90;;;;;;5089782;28;20196;-67
2024/01/14 03:01:07;;;;;;;9.20;8.20;;;17.20;49.80;;;;;;5089743;28;20177;-69
2024/01/14 03:03:33;;;;;;;9.25;8.25;;;17.30;49.80;;;;;;5094496;28;20189;-69
2024/01/14 03:05:59;;;;;;;8.00;7.20;;;17.30;49.80;;;;;;5075010;28;20211;-69
2024/01/14 03:08:24;;;;;;;9.40;8.38;;;17.30;49.80;;;;;;5099937;28;20177;-69
2024/01/14 03:10:50;;;;;;;8.43;7.60;;;17.30;49.70;;;;;;5093566;28;20184;-68
2024/01/14 03:13:16;;;;;;;8.45;7.57;;;17.30;49.80;;;;;;5086288;28;20196;-70
2024/01/14 03:15:43;;;;;;;8.40;7.50;;;17.20;49.80;;;;;;5080404;28;20202;-68
2024/01/14 03:18:08;;;;;;;9.13;8.05;;;17.20;49.70;;;;;;5092028;28;20197;-68
2024/01/14 03:20:34;;;;;;;9.15;7.82;;;17.30;49.80;;;;;;5081199;28;20280;-68
2024/01/14 03:23:00;;;;;;;8.75;7.93;;;17.20;49.60;;;;;;5092456;28;20291;-68
2024/01/14 03:25:26;;;;;;;9.70;8.70;;;17.20;49.60;;;;;;5080824;28;20213;-68
2024/01/14 03:27:51;;;;;;;9.93;8.85;;;17.30;49.80;;;;;;5093158;28;20184;-68
2024/01/14 03:30:18;;;;;;;9.82;8.82;;;17.30;49.80;;;;;;5093078;28;20193;-68
2024/01/14 03:32:44;;;;;;;9.15;8.27;;;17.30;49.70;;;;;;5093081;28;20217;-68
2024/01/14 03:35:09;;;;;;;9.90;8.90;;;17.30;49.70;;;;;;5092983;28;20240;-68
2024/01/14 03:37:35;;;;;;;9.52;8.57;;;17.20;49.50;;;;;;5101420;28;20184;-68
2024/01/14 03:40:01;;;;;;;9.57;8.10;;;17.20;49.60;;;;;;5095479;28;20219;-68
2024/01/14 03:42:27;;;;;;;9.18;8.27;;;17.30;49.70;;;;;;5094122;28;20559;-68
2024/01/14 03:44:53;;;;;;;9.68;8.77;;;17.20;49.50;;;;;;5098505;28;20205;-69
2024/01/14 03:47:18;;;;;;;9.43;7.93;;;17.30;49.60;;;;;;5092220;28;20195;-70
2024/01/14 03:49:44;;;;;;;8.73;7.82;;;17.20;49.60;;;;;;5097820;28;20196;-68
2024/01/14 03:52:10;;;;;;;8.70;7.88;;;17.20;49.60;;;;;;5092691;28;20260;-68
2024/01/14 03:54:36;;;;;;;8.43;7.63;;;17.20;49.60;;;;;;5075244;28;20696;-69
2024/01/14 03:57:01;;;;;;;8.75;7.70;;;17.20;49.60;;;;;;5090840;28;20192;-69
2024/01/14 03:59:27;;;;;;;9.15;7.85;;;17.20;49.60;;;;;;5075742;28;20204;-69
2024/01/14 04:01:53;;;;;;;8.68;7.88;;;17.20;49.60;;;;;;5109505;28;20199;-68
2024/01/14 04:04:19;;;;;;;8.98;8.07;;;17.20;49.50;;;;;;5093596;28;20296;-68
2024/01/14 04:06:45;;;;;;;9.05;8.15;;;17.20;49.50;;;;;;5092584;28;20185;-68
2024/01/14 04:09:11;;;;;;;9.23;8.27;;;17.20;49.50;;;;;;5092699;28;20270;-68
2024/01/14 04:11:37;;;;;;;8.50;7.70;;;17.20;49.50;;;;;;5089303;28;20301;-68
2024/01/14 04:14:02;;;;;;;9.38;8.18;;;17.20;49.50;;;;;;5073801;28;20225;-68
2024/01/14 04:16:41;;;;;;;8.82;7.82;;;17.20;49.50;;;;;;5091731;28;20200;-68
2024/01/14 04:19:08;;;;;;;9.43;8.25;;;17.20;49.40;;;;;;5075651;28;20216;-68
2024/01/14 04:21:34;;;;;;;9.43;8.43;;;17.20;49.50;;;;;;5093576;28;20181;-68
2024/01/14 04:24:03;;;;;;;8.98;7.90;;;17.20;49.50;;;;;;5075178;28;20224;-69
2024/01/14 04:26:29;;;;;;;9.07;8.18;;;17.20;49.40;;;;;;5075451;28;20189;-68
2024/01/14 04:28:56;;;;;;;8.80;7.90;;;17.20;49.40;;;;;;5092373;28;20177;-68
2024/01/14 04:31:22;;;;;;;8.90;8.00;;;17.20;49.40;;;;;;5064054;28;20195;-68
2024/01/14 04:33:48;;;;;;;9.02;8.13;;;17.20;49.40;;;;;;5075007;28;20173;-68
2024/01/14 04:36:14;;;;;;;9.57;8.45;;;17.20;49.40;;;;;;5091865;28;20181;-68
2024/01/14 04:38:41;;;;;;;10.18;8.80;;;17.20;49.50;;;;;;5093009;28;20173;-68
2024/01/14 04:41:06;;;;;;;8.85;7.95;;;17.20;49.40;;;;;;5091600;28;20213;-68
2024/01/14 04:43:32;;;;;;;9.15;8.25;;;17.20;49.40;;;;;;5091710;28;20188;-70
2024/01/14 04:45:58;;;;;;;9.27;8.27;;;17.20;49.30;;;;;;5091745;28;20291;-68
2024/01/14 04:48:24;;;;;;;9.00;8.10;;;17.20;49.40;;;;;;5091268;28;20215;-69
2024/01/14 04:50:52;;;;;;;8.90;7.97;;;17.20;49.30;;;;;;5091511;28;20243;-68
2024/01/14 04:53:17;;;;;;;8.63;7.72;;;17.20;49.40;;;;;;5099167;28;20208;-69
2024/01/14 04:55:43;;;;;;;8.57;7.68;;;17.20;49.40;;;;;;5108580;27;20236;-70
2024/01/14 04:58:09;;;;;;;9.43;8.43;;;17.20;49.30;;;;;;5091005;28;20189;-66
2024/01/14 05:00:35;;;;;;;9.05;8.15;;;17.20;49.20;;;;;;5090860;28;20236;-69
2024/01/14 05:03:01;;;;;;;8.73;7.82;;;17.20;49.30;;;;;;5072908;28;20184;-67
2024/01/14 05:05:26;;;;;;;9.40;8.45;;;17.20;49.20;;;;;;5073481;28;20228;-68
2024/01/14 05:07:52;;;;;;;9.10;8.30;;;17.20;49.30;;;;;;5078487;28;20177;-68
2024/01/14 05:10:18;;;;;;;8.93;8.02;;;17.20;49.40;;;;;;5087905;28;20197;-69
2024/01/14 05:12:43;;;;;;;9.05;8.13;;;17.20;49.30;;;;;;5069569;28;20192;-68
2024/01/14 05:15:09;;;;;;;8.40;7.57;;;17.20;49.30;;;;;;5074273;28;20235;-68
2024/01/14 05:17:36;;;;;;;8.60;7.80;;;17.20;49.20;;;;;;5083034;28;20567;-68
2024/01/14 05:20:02;;;;;;;9.20;8.13;;;17.20;49.30;;;;;;5091117;28;20292;-68
2024/01/14 05:22:28;;;;;;;8.55;7.68;;;17.20;49.10;;;;;;5070005;28;20261;-68
2024/01/14 05:24:55;;;;;;;8.88;7.80;;;17.20;49.30;;;;;;5074281;28;20299;-69
2024/01/14 05:27:21;;;;;;;8.50;7.60;;;17.20;49.20;;;;;;5070571;28;20699;-68
2024/01/14 05:29:47;;;;;;;8.60;7.72;;;17.20;49.00;;;;;;5081670;28;20181;-68
2024/01/14 05:32:16;;;;;;;9.30;8.30;;;17.20;49.00;;;;;;5073934;28;20199;-68
2024/01/14 05:34:44;;;;;;;8.70;7.88;;;17.20;49.10;;;;;;5090538;28;20213;-69
2024/01/14 05:37:11;;;;;;;8.15;7.35;;;17.20;49.00;;;;;;5090523;28;20191;-68
2024/01/14 05:39:37;;;;;;;8.52;7.63;;;17.20;49.10;;;;;;5091752;28;20199;-70
2024/01/14 05:42:04;;;;;;;8.75;7.85;;;17.20;49.20;;;;;;5090628;28;20189;-69
2024/01/14 05:44:33;;;;;;;8.45;7.65;;;17.20;49.10;;;;;;5090573;28;20288;-68
2024/01/14 05:46:58;;;;;;;8.13;7.32;;;17.20;49.20;;;;;;5073832;28;20216;-68
2024/01/14 05:49:24;;;;;;;9.15;8.25;;;17.20;49.10;;;;;;5073863;28;20282;-68
2024/01/14 05:51:50;;;;;;;7.95;7.15;;;17.20;49.10;;;;;;5090456;28;20181;-69
2024/01/14 05:54:16;;;;;;;8.60;7.70;;;17.20;49.10;;;;;;5090333;28;20239;-68
2024/01/14 05:56:42;;;;;;;8.45;7.50;;;17.20;49.00;;;;;;5090400;28;20184;-69
2024/01/14 05:59:08;;;;;;;8.80;7.90;;;17.20;49.10;;;;;;5091652;28;20680;-68
2024/01/14 06:01:34;;;;;;;8.82;7.97;;;17.20;49.00;;;;;;5099426;28;20188;-68
2024/01/14 06:03:59;;;;;;;8.77;7.57;;;17.20;49.10;;;;;;5090059;28;20219;-68
2024/01/14 06:06:25;;;;;;;8.23;7.43;;;17.20;49.00;;;;;;5073667;28;20183;-68
2024/01/14 06:08:51;;;;;;;9.00;7.82;;;17.20;49.10;;;;;;5099598;28;20177;-68
2024/01/14 06:11:17;;;;;;;7.90;7.20;;;17.20;49.00;;;;;;5073376;28;20559;-69
2024/01/14 06:13:42;;;;;;;8.30;7.45;;;17.20;49.30;;;;;;5073142;28;20274;-68
2024/01/14 06:16:10;;;;;;;9.05;8.10;;;17.20;49.10;;;;;;5091592;28;20205;-70
2024/01/14 06:18:36;;;;;;;9.20;8.00;;;17.20;49.10;;;;;;5076761;28;20183;-69
2024/01/14 06:21:02;;;;;;;8.88;7.97;;;17.20;49.20;;;;;;5102205;28;20291;-68
2024/01/14 06:23:29;;;;;;;8.55;7.65;;;17.20;49.10;;;;;;5090462;28;20180;-68
2024/01/14 06:25:55;;;;;;;8.05;7.25;;;17.20;49.10;;;;;;5072954;28;20196;-71
2024/01/14 06:28:22;;;;;;;7.95;7.13;;;17.20;49.00;;;;;;5088243;28;20186;-68
2024/01/14 06:30:48;;;;;;;8.25;7.40;;;17.20;49.00;;;;;;5089456;28;20197;-68
2024/01/14 06:33:14;;;;;;;9.60;8.60;;;17.20;49.00;;;;;;5079348;28;20275;-68
2024/01/14 06:35:40;;;;;;;10.38;9.00;;;17.20;49.60;;;;;;5092255;28;20206;-69
2024/01/14 06:38:10;;;;;;;8.90;8.00;;;17.20;49.10;;;;;;5090434;28;20191;-68
2024/01/14 06:40:36;;;;;;;9.88;8.70;;;17.20;49.00;;;;;;5104892;28;20234;-68
2024/01/14 06:43:02;;;;;;;9.77;8.77;;;17.20;49.00;;;;;;5079863;28;20198;-68
2024/01/14 06:45:28;;;;;;;9.52;8.60;;;17.20;49.00;;;;;;5089858;28;20255;-68
2024/01/14 06:47:54;;;;;;;9.57;8.55;;;17.20;49.10;;;;;;5114007;27;20212;-68
2024/01/14 06:50:20;;;;;;;9.50;8.60;;;17.20;49.00;;;;;;5076731;28;20200;-69
2024/01/14 06:52:46;;;;;;;9.93;8.95;;;17.20;49.10;;;;;;5075117;28;20196;-68
2024/01/14 06:55:13;;;;;;;9.82;8.75;;;17.20;49.10;;;;;;5095205;28;20215;-68
2024/01/14 06:57:38;;;;;;;9.85;8.85;;;17.20;49.00;;;;;;5077088;28;20184;-72
2024/01/14 07:00:05;;;;;;;9.27;8.38;;;17.20;49.00;;;;;;5097868;28;20235;-69
2024/01/14 07:02:31;;;;;;;10.20;9.20;;;17.20;49.00;;;;;;5087436;28;20279;-68
2024/01/14 07:04:57;;;;;;;10.40;9.25;;;17.20;49.00;;;;;;5083755;28;20209;-68
2024/01/14 07:07:23;;;;;;;10.10;9.00;;;17.20;49.60;;;;;;5100818;28;20184;-66
2024/01/14 07:09:49;;;;;;;9.27;8.35;;;17.20;49.20;;;;;;5099460;28;20188;-69
2024/01/14 07:12:15;;;;;;;10.55;9.45;;;17.20;49.60;;;;;;5076900;28;20188;-69
2024/01/14 07:14:41;;;;;;;9.82;8.63;;;17.20;49.10;;;;;;5092875;28;20295;-69
2024/01/14 07:17:08;;;;;;;9.38;8.48;;;17.20;49.10;;;;;;5093395;28;20181;-69
2024/01/14 07:19:35;;;;;;;9.25;8.32;;;17.20;49.20;;;;;;5081900;28;20236;-68
2024/01/14 07:22:04;;;;;;;10.30;8.63;;;17.20;49.00;;;;;;5090505;28;20177;-68
2024/01/14 07:24:30;;;;;;;9.65;8.60;;;17.20;49.10;;;;;;5089170;28;20209;-68
2024/01/14 07:26:56;;;;;;;9.82;8.82;;;17.20;49.00;;;;;;5082187;28;20189;-69
2024/01/14 07:29:21;;;;;;;9.45;8.50;;;17.20;49.10;;;;;;5096264;28;20196;-68
2024/01/14 07:31:47;;;;;;;8.30;7.40;;;17.20;49.20;;;;;;5094479;28;20205;-69
2024/01/14 07:34:13;;;;;;;9.15;8.18;;;17.20;49.20;;;;;;5073676;28;20205;-70
2024/01/14 07:36:39;;;;;;;9.02;8.10;;;17.20;49.30;;;;;;5090234;28;20644;-68
2024/01/14 07:39:04;;;;;;;9.55;8.55;;;17.20;49.20;;;;;;5092821;28;20210;-68
2024/01/14 07:41:30;;;;;;;8.85;7.93;;;17.20;49.20;;;;;;5078529;28;20185;-68
2024/01/14 07:43:56;;;;;;;9.35;8.43;;;17.20;49.00;;;;;;5104243;28;20192;-68
2024/01/14 07:46:22;;;;;;;9.85;8.80;;;17.20;49.20;;;;;;5093785;28;20228;-68
2024/01/14 07:48:48;;;;;;;9.18;8.23;;;17.20;49.30;;;;;;5090709;28;20220;-68
2024/01/14 07:51:14;;;;;;;8.98;8.05;;;17.20;49.20;;;;;;5075067;28;20189;-69
2024/01/14 07:53:40;;;;;;;9.50;8.50;;;17.20;49.10;;;;;;5089869;28;20197;-66
2024/01/14 07:56:06;;;;;;;9.10;8.20;;;17.20;49.10;;;;;;5099612;28;20196;-69
2024/01/14 07:58:32;;;;;;;9.65;8.65;;;17.20;49.10;;;;;;5092102;28;20644;-69
2024/01/14 08:00:58;;;;;;;9.40;8.40;;;17.20;49.20;;;;;;5091937;28;20299;-68
2024/01/14 08:03:23;;;;;;;8.70;7.82;;;17.20;49.10;;;;;;5089473;28;20182;-68
2024/01/14 08:05:49;;;;;;;9.10;8.20;;;17.20;49.00;;;;;;5096056;28;20294;-69
2024/01/14 08:08:15;;;;;;;9.35;8.38;;;17.20;49.10;;;;;;5083672;28;20177;-69
2024/01/14 08:10:41;;;;;;;9.02;7.75;;;17.20;49.10;;;;;;5091681;28;20271;-69
2024/01/14 08:13:07;;;;;;;9.35;8.25;;;17.30;49.10;;;;;;5076562;28;20188;-69
2024/01/14 08:15:33;;;;;;;9.10;8.20;;;17.20;49.10;;;;;;5082338;28;20213;-68
2024/01/14 08:17:59;;;;;;;9.48;8.48;;;17.20;49.00;;;;;;5106939;27;20189;-69
2024/01/14 08:20:25;;;;;;;9.75;8.75;;;17.30;49.10;;;;;;5087553;28;20212;-69
2024/01/14 08:22:53;;;;;;;9.40;8.32;;;17.30;49.10;;;;;;5095278;28;20181;-69
2024/01/14 08:25:21;;;;;;;9.13;8.23;;;17.30;49.10;;;;;;5075666;28;20205;-70
2024/01/14 08:27:50;;;;;;;9.13;8.15;;;17.30;49.10;;;;;;5091475;28;20184;-70
2024/01/14 08:30:15;;;;;;;9.63;8.18;;;17.30;49.10;;;;;;5091574;28;20189;-69
2024/01/14 08:32:41;;;;;;;9.25;8.32;;;17.30;49.10;;;;;;5093365;28;20199;-69
2024/01/14 08:35:07;;;;;;;8.98;8.07;;;17.30;49.10;;;;;;5091874;28;20205;-69
2024/01/14 08:37:33;;;;;;;9.32;8.07;;;17.30;49.10;;;;;;5097982;28;20189;-69
2024/01/14 08:39:58;;;;;;;8.20;7.40;;;17.30;49.10;;;;;;5085909;28;20707;-68
2024/01/14 08:42:24;;;;;;;8.50;7.70;;;17.30;49.10;;;;;;5076521;28;20183;-69
2024/01/14 08:44:50;;;;;;;8.65;7.85;;;17.30;49.10;;;;;;5093673;28;20269;-68
2024/01/14 08:47:16;;;;;;;8.52;7.70;;;17.30;49.10;;;;;;5096105;28;20195;-68
2024/01/14 08:49:41;;;;;;;8.80;7.90;;;17.30;49.10;;;;;;5081714;28;20188;-68
2024/01/14 08:52:08;;;;;;;9.02;8.13;;;17.30;49.10;;;;;;5093758;28;20185;-68
2024/01/14 08:54:34;;;;;;;8.57;7.78;;;17.30;49.10;;;;;;5091050;28;20212;-68
2024/01/14 08:57:00;;;;;;;8.48;7.47;;;17.30;49.10;;;;;;5105293;28;20243;-68
2024/01/14 08:59:26;;;;;;;8.82;7.93;;;17.30;49.10;;;;;;5107489;28;20204;-69
2024/01/14 09:01:52;;;;;;;8.32;7.47;;;17.30;49.10;;;;;;5093727;28;20185;-69
2024/01/14 09:04:19;;;;;;;8.93;8.02;;;17.30;49.10;;;;;;5073678;28;20204;-67
2024/01/14 09:06:45;;;;;;;7.63;6.82;;;17.30;49.10;;;;;;5072230;28;20555;-69
2024/01/14 09:09:11;;;;;;;8.32;7.43;;;17.30;49.10;;;;;;5090931;28;20217;-69
2024/01/14 09:11:38;;;;;;;9.18;8.25;;;17.30;49.10;;;;;;5088168;28;20189;-69
2024/01/14 09:14:05;;;;;;;8.32;7.53;;;17.30;49.10;;;;;;5091979;28;20220;-68
2024/01/14 09:16:30;;;;;;;8.90;8.07;;;17.30;49.10;;;;;;5090013;28;20249;-69
2024/01/14 09:18:56;;;;;;;8.07;7.20;;;17.40;49.20;;;;;;5106826;28;20189;-68
2024/01/14 09:21:22;;;;;;;7.88;7.07;;;17.40;49.20;;;;;;5090754;28;20230;-68
2024/01/14 09:23:48;;;;;;;8.38;7.55;;;17.40;49.20;;;;;;5091598;28;20207;-68
2024/01/14 09:26:14;;;;;;;7.82;7.13;;;17.40;49.20;;;;;;5090873;28;20191;-69
2024/01/14 09:28:39;;;;;;;8.23;7.40;;;17.40;49.20;;;;;;5090722;28;20219;-68
2024/01/14 09:31:05;;;;;;;8.68;7.80;;;17.40;49.20;;;;;;5091461;28;20215;-68
2024/01/14 09:33:32;;;;;;;8.18;7.38;;;17.40;49.80;;;;;;5092975;28;20196;-69
2024/01/14 09:36:09;;;;;;;8.63;7.72;;;17.40;49.20;;;;;;5088595;28;20224;-68
2024/01/14 09:38:35;;;;;;;8.27;7.47;;;17.40;49.20;;;;;;5089579;28;20185;-68
2024/01/14 09:41:57;;;;;;;8.25;7.45;;;17.40;49.20;;;;;;5090659;28;20287;-68
2024/01/14 09:44:23;;;;;;;7.53;6.82;;;17.40;49.20;;;;;;5091488;28;20279;-68
2024/01/14 09:46:51;;;;;;;8.00;7.20;;;17.40;49.30;;;;;;5086446;28;20262;-70
2024/01/14 09:49:19;;;;;;;7.82;7.03;;;17.40;49.20;;;;;;5091024;28;20271;-68
2024/01/14 09:51:48;;;;;;;7.53;6.72;;;17.40;49.20;;;;;;5078626;28;20190;-69
2024/01/14 09:54:14;;;;;;;8.27;7.43;;;17.40;49.20;;;;;;5090551;28;20291;-69
2024/01/14 09:56:42;;;;;;;7.22;6.47;;;17.40;49.20;;;;;;5068818;28;20267;-69
2024/01/14 09:59:09;;;;;;;8.13;7.25;;;17.40;49.30;;;;;;5090916;28;20177;-69
2024/01/14 10:01:36;;;;;;;7.85;6.53;;;17.40;49.20;;;;;;5091531;28;20181;-69
2024/01/14 10:04:07;;;;;;;7.15;6.45;;;17.40;49.20;;;;;;5072066;28;20588;-68
2024/01/14 10:06:33;;;;;;;7.53;6.82;;;17.40;49.40;;;;;;5089216;28;20193;-69
2024/01/14 10:08:59;;;;;;;7.47;6.78;;;17.40;49.40;;;;;;5072731;28;20189;-70
2024/01/14 10:11:25;;;;;;;6.72;6.03;;;17.40;49.40;;;;;;5081022;28;20187;-69
2024/01/14 10:13:51;;;;;;;7.32;6.63;;;17.40;49.40;;;;;;5089961;28;20204;-69
2024/01/14 10:16:18;;;;;;;7.30;6.50;;;17.40;49.40;;;;;;5087724;28;20221;-69
2024/01/14 10:18:44;;;;;;;7.43;6.72;;;17.50;49.60;;;;;;5093539;28;20181;-69
2024/01/14 10:21:10;;;;;;;7.15;6.45;;;17.50;49.40;;;;;;5094570;28;20220;-68
2024/01/14 10:23:37;;;;;;;7.40;6.70;;;17.50;49.50;;;;;;5077764;28;20197;-68
2024/01/14 10:26:03;;;;;;;6.88;6.18;;;17.50;49.60;;;;;;5094820;28;20622;-68
2024/01/14 10:28:37;;;;;;;7.15;6.45;;;17.50;49.60;;;;;;5110950;28;20185;-68
2024/01/14 10:31:06;;;;;;;6.50;5.90;;;17.50;49.50;;;;;;5095348;28;20212;-68
2024/01/14 10:33:34;;;;;;;7.43;6.72;;;17.50;49.50;;;;;;5101029;28;20188;-69
2024/01/14 10:36:00;;;;;;;7.25;5.80;;;17.50;49.50;;;;;;5077237;28;20201;-68
2024/01/14 10:38:26;;;;;;;7.10;6.03;;;17.50;49.70;;;;;;5094204;28;20260;-68
2024/01/14 10:40:53;;;;;;;7.18;6.55;;;17.50;49.60;;;;;;5105995;28;20390;-69
2024/01/14 10:43:23;;;;;;;6.63;6.03;;;17.50;49.60;;;;;;5076538;28;20188;-68
2024/01/14 10:45:52;;;;;;;6.97;6.18;;;17.50;49.70;;;;;;5093661;28;20433;-69
2024/01/14 10:48:26;;;;;;;6.43;5.80;;;17.50;49.60;;;;;;5085243;28;20196;-69
2024/01/14 10:51:01;;;;;;;6.28;5.60;;;17.60;49.70;;;;;;5094046;28;20691;-67
2024/01/14 10:54:11;;;;;;;6.72;6.03;;;17.60;49.70;;;;;;5095253;28;20191;-69
2024/01/14 10:56:48;;;;;;;6.35;5.75;;;17.50;49.70;;;;;;5091909;28;20283;-69
2024/01/14 10:59:16;;;;;;;6.15;5.60;;;17.50;49.70;;;;;;5094401;28;20185;-69
2024/01/14 11:01:52;;;;;;;6.25;5.65;;;17.60;49.70;;;;;;5097179;28;20181;-69
2024/01/14 11:04:18;;;;;;;6.43;5.82;;;17.60;49.80;;;;;;5096234;28;20234;-70
2024/01/14 11:06:46;;;;;;;6.65;5.63;;;17.60;49.80;;;;;;5081972;28;20234;-69
2024/01/14 11:09:12;;;;;;;6.50;5.80;;;17.60;49.90;;;;;;5103863;28;20189;-69
2024/01/14 11:12:07;;;;;;;6.07;5.50;;;17.50;49.80;;;;;;5107597;28;20242;-69
2024/01/14 11:14:59;;;;;;;5.40;4.90;;;17.60;49.90;;;;;;5094147;28;20212;-70
2024/01/14 11:17:31;;;;;;;5.80;5.30;;;17.60;50.00;;;;;;5097284;28;20225;-69
2024/01/14 11:19:59;;;;;;;6.30;5.70;;;17.60;49.90;;;;;;5103420;28;20216;-68
2024/01/14 11:22:26;;;;;;;5.72;5.13;;;17.60;49.90;;;;;;5084436;28;20177;-69
2024/01/14 11:24:53;;;;;;;5.80;5.20;;;17.60;50.00;;;;;;5108386;28;20196;-69
2024/01/14 11:27:19;;;;;;;5.55;5.00;;;17.60;50.00;;;;;;5075469;28;20199;-69
2024/01/14 11:29:44;;;;;;;6.40;5.03;;;17.60;50.00;;;;;;5081397;28;20259;-69
2024/01/14 11:32:13;;;;;;;5.90;5.30;;;17.60;50.00;;;;;;5103453;28;20243;-69
2024/01/14 11:34:47;;;;;;;5.43;4.93;;;17.60;50.10;;;;;;5093070;28;20236;-69
2024/01/14 11:37:45;;;;;;;5.05;4.57;;;17.60;50.10;;;;;;5079558;28;20273;-69
2024/01/14 11:40:23;;;;;;;5.50;4.97;;;17.60;50.10;;;;;;5101558;28;20594;-69
2024/01/14 11:42:56;;;;;;;6.00;5.50;;;17.60;50.20;;;;;;5100658;28;20181;-69
2024/01/14 11:45:27;;;;;;;5.95;5.35;;;17.60;50.20;;;;;;5085140;28;20231;-69
2024/01/14 11:47:56;;;;;;;5.70;5.10;;;17.60;50.20;;;;;;5097592;28;20193;-69
2024/01/14 11:50:25;;;;;;;5.38;4.90;;;17.60;50.20;;;;;;5100054;28;20211;-69
2024/01/14 11:52:56;;;;;;;5.55;4.95;;;17.60;50.30;;;;;;5093870;28;20207;-70
2024/01/14 11:55:26;;;;;;;5.43;4.90;;;17.60;50.40;;;;;;5107522;28;20209;-68
2024/01/14 11:57:53;;;;;;;5.55;4.97;;;17.60;50.90;;;;;;5075748;28;20192;-69
2024/01/14 12:00:25;;;;;;;5.18;4.68;;;17.70;54.30;;;;;;5100380;28;20204;-70
2024/01/14 12:03:09;;;;;;;5.03;4.53;;;17.60;60.90;;;;;;5095183;28;20173;-69
2024/01/14 12:05:35;;;;;;;5.60;5.07;;;17.60;63.20;;;;;;5100020;28;20601;-69
2024/01/14 12:08:01;;;;;;;5.55;5.05;;;17.60;57.70;;;;;;5082302;28;20177;-69
2024/01/14 12:10:32;;;;;;;5.40;4.78;;;17.70;59.30;;;;;;5075551;28;20188;-68
2024/01/14 12:13:04;;;;;;;5.70;5.20;;;17.70;54.00;;;;;;5092224;28;20187;-69
2024/01/14 12:15:30;;;;;;;5.30;4.80;;;17.60;57.60;;;;;;5096509;28;20251;-69
2024/01/14 12:17:57;;;;;;;5.03;4.63;;;17.70;54.70;;;;;;5083543;28;20191;-70
2024/01/14 12:20:24;;;;;;;5.20;4.70;;;17.70;51.50;;;;;;5091751;28;20707;-70
2024/01/14 12:23:07;;;;;;;5.72;5.10;;;17.60;50.50;;;;;;5085135;28;20192;-70
2024/01/14 12:25:33;;;;;;;5.45;4.95;;;17.60;50.40;;;;;;5069487;28;20210;-69
2024/01/14 12:27:59;;;;;;;4.82;4.40;;;17.70;50.50;;;;;;5090401;28;20231;-69
2024/01/14 12:30:29;;;;;;;4.90;4.50;;;17.60;50.40;;;;;;5078286;28;20188;-69
2024/01/14 12:32:56;;;;;;;6.13;5.20;;;17.70;50.60;;;;;;5085711;28;20259;-69
2024/01/14 12:35:36;;;;;;;5.50;5.00;;;17.70;50.50;;;;;;5090693;28;20292;-69
2024/01/14 12:38:04;;;;;;;4.88;4.47;;;17.70;50.60;;;;;;5097742;28;20181;-69
2024/01/14 12:40:31;;;;;;;4.75;4.32;;;17.70;50.60;;;;;;5092597;28;20200;-69
2024/01/14 12:42:57;;;;;;;5.03;4.53;;;17.70;50.60;;;;;;5109015;28;20207;-71
2024/01/14 12:45:23;;;;;;;5.07;4.50;;;17.70;50.60;;;;;;5087089;28;20212;-69
2024/01/14 12:48:04;;;;;;;5.20;4.70;;;17.70;50.60;;;;;;5085516;28;20184;-69